createdAt,value
2024-02-27T00:01:51.513Z,11.60
2024-02-27T00:04:18.198Z,10.70
2024-02-27T00:06:45.123Z,11.47
2024-02-27T00:09:16.193Z,10.40
2024-02-27T00:11:44.485Z,10.17
2024-02-27T00:14:11.240Z,10.60
2024-02-27T00:16:38.236Z,10.57
2024-02-27T00:19:04.956Z,10.73
2024-02-27T00:21:31.877Z,11.50
2024-02-27T00:23:58.639Z,11.40
2024-02-27T00:26:25.336Z,11.93
2024-02-27T00:28:51.996Z,11.47
2024-02-27T00:31:18.655Z,11.53
2024-02-27T00:33:45.393Z,11.90
2024-02-27T00:36:12.101Z,11.97
2024-02-27T00:38:38.760Z,11.63
2024-02-27T00:41:05.707Z,11.97
2024-02-27T00:43:32.624Z,12.27
2024-02-27T00:45:59.298Z,11.77
2024-02-27T00:48:26.186Z,11.90
2024-02-27T00:50:53.007Z,11.73
2024-02-27T00:53:22.348Z,12.07
2024-02-27T00:55:49.096Z,10.83
2024-02-27T00:58:15.799Z,12.03
2024-02-27T01:00:42.600Z,11.50
2024-02-27T01:03:09.353Z,11.63
2024-02-27T01:05:36.089Z,11.47
2024-02-27T01:08:02.789Z,11.40
2024-02-27T01:10:29.429Z,10.97
2024-02-27T01:12:56.118Z,10.70
2024-02-27T01:15:22.841Z,11.80
2024-02-27T01:17:49.553Z,11.73
2024-02-27T01:20:16.298Z,11.57
2024-02-27T01:22:42.956Z,11.47
2024-02-27T01:25:12.599Z,11.97
2024-02-27T01:27:39.643Z,11.67
2024-02-27T01:30:06.842Z,11.60
2024-02-27T01:32:33.594Z,11.90
2024-02-27T01:35:00.551Z,11.77
2024-02-27T01:37:27.434Z,11.27
2024-02-27T01:39:54.092Z,11.53
2024-02-27T01:42:20.787Z,11.27
2024-02-27T01:44:52.208Z,10.87
2024-02-27T01:47:19.846Z,11.20
2024-02-27T01:49:48.563Z,10.97
2024-02-27T01:52:15.251Z,11.07
2024-02-27T01:54:42.861Z,10.90
2024-02-27T01:57:09.561Z,10.90
2024-02-27T01:59:36.248Z,10.60
2024-02-27T02:02:02.876Z,10.77
2024-02-27T02:04:29.663Z,11.20
2024-02-27T02:06:56.568Z,12.37
2024-02-27T02:09:23.365Z,12.83
2024-02-27T02:11:50.014Z,13.07
2024-02-27T02:14:16.725Z,11.90
2024-02-27T02:16:43.503Z,12.60
2024-02-27T02:19:10.486Z,11.80
2024-02-27T02:21:37.249Z,13.13
2024-02-27T02:24:04.240Z,13.30
2024-02-27T02:26:31.323Z,12.63
2024-02-27T02:28:58.236Z,13.07
2024-02-27T02:31:24.904Z,13.00
2024-02-27T02:33:51.701Z,12.53
2024-02-27T02:36:18.570Z,12.90
2024-02-27T02:38:45.252Z,12.87
2024-02-27T02:41:11.920Z,12.33
2024-02-27T02:43:38.565Z,12.70
2024-02-27T02:46:05.226Z,13.47
2024-02-27T02:48:32.040Z,12.40
2024-02-27T02:50:58.804Z,12.77
2024-02-27T02:53:25.692Z,12.67
2024-02-27T02:55:52.349Z,12.63
2024-02-27T02:58:19.048Z,12.87
2024-02-27T03:00:45.818Z,12.13
2024-02-27T03:03:13.437Z,12.77
2024-02-27T03:05:40.135Z,12.53
2024-02-27T03:08:07.049Z,12.93
2024-02-27T03:10:33.701Z,12.83
2024-02-27T03:13:00.476Z,13.70
2024-02-27T03:15:27.142Z,14.87
2024-02-27T03:17:54.153Z,15.37
2024-02-27T03:20:20.822Z,16.83
2024-02-27T03:22:47.473Z,16.17
2024-02-27T03:25:14.128Z,18.10
2024-02-27T03:27:41.267Z,18.90
2024-02-27T03:30:12.048Z,18.17
2024-02-27T03:32:38.906Z,18.70
2024-02-27T03:35:05.914Z,19.43
2024-02-27T03:37:32.599Z,18.67
2024-02-27T03:39:59.258Z,18.53
2024-02-27T03:42:26.134Z,19.90
2024-02-27T03:44:52.857Z,21.20
2024-02-27T03:47:19.568Z,20.67
2024-02-27T03:49:46.289Z,20.53
2024-02-27T03:52:13.001Z,20.23
2024-02-27T03:54:39.795Z,20.47
2024-02-27T03:57:06.704Z,20.70
2024-02-27T03:59:33.413Z,19.67
2024-02-27T04:02:00.059Z,19.97
2024-02-27T04:04:26.733Z,19.90
2024-02-27T04:06:53.465Z,20.33
2024-02-27T04:09:20.262Z,20.37
2024-02-27T04:11:46.970Z,20.37
2024-02-27T04:14:13.629Z,19.53
2024-02-27T04:16:41.911Z,20.07
2024-02-27T04:19:08.692Z,20.90
2024-02-27T04:21:35.509Z,20.73
2024-02-27T04:24:02.170Z,20.73
2024-02-27T04:26:28.826Z,20.83
2024-02-27T04:28:55.471Z,21.07
2024-02-27T04:31:22.143Z,20.57
2024-02-27T04:33:48.840Z,19.77
2024-02-27T04:36:15.630Z,21.13
2024-02-27T04:38:43.283Z,20.83
2024-02-27T04:41:10.151Z,22.23
2024-02-27T04:43:37.835Z,22.17
2024-02-27T04:46:04.857Z,21.00
2024-02-27T04:48:31.683Z,21.80
2024-02-27T04:50:58.489Z,21.27
2024-02-27T04:53:25.147Z,22.00
2024-02-27T04:55:51.785Z,21.47
2024-02-27T04:58:18.430Z,21.87
2024-02-27T05:00:45.134Z,22.97
2024-02-27T05:03:11.914Z,24.40
2024-02-27T05:05:38.655Z,22.17
2024-02-27T05:08:05.671Z,22.33
2024-02-27T05:10:33.308Z,22.53
2024-02-27T05:13:01.587Z,22.43
2024-02-27T05:15:28.317Z,22.90
2024-02-27T05:17:55.045Z,23.67
2024-02-27T05:20:21.764Z,21.87
2024-02-27T05:22:48.419Z,21.57
2024-02-27T05:25:15.270Z,22.03
2024-02-27T05:27:42.006Z,21.37
2024-02-27T05:30:09.162Z,21.80
2024-02-27T05:32:35.903Z,21.70
2024-02-27T05:35:02.688Z,21.97
2024-02-27T05:37:30.149Z,21.60
2024-02-27T05:39:56.805Z,22.30
2024-02-27T05:42:24.121Z,20.17
2024-02-27T05:44:50.854Z,19.93
2024-02-27T05:47:17.493Z,20.60
2024-02-27T05:49:44.163Z,20.03
2024-02-27T05:52:10.838Z,20.07
2024-02-27T05:54:37.617Z,20.63
2024-02-27T05:57:05.788Z,20.20
2024-02-27T05:59:32.474Z,20.73
2024-02-27T06:01:59.125Z,20.17
2024-02-27T06:04:26.168Z,18.70
2024-02-27T06:06:52.988Z,20.33
2024-02-27T06:09:19.813Z,18.77
2024-02-27T06:11:46.563Z,19.40
2024-02-27T06:14:14.383Z,19.93
2024-02-27T06:16:41.437Z,19.00
2024-02-27T06:19:08.584Z,19.53
2024-02-27T06:21:54.302Z,21.00
2024-02-27T06:24:21.091Z,19.47
2024-02-27T06:26:47.757Z,20.20
2024-02-27T06:29:14.437Z,19.00
2024-02-27T06:31:41.201Z,19.03
2024-02-27T06:34:07.981Z,18.00
2024-02-27T06:36:34.767Z,19.40
2024-02-27T06:39:02.011Z,18.87
2024-02-27T06:41:28.740Z,19.57
2024-02-27T06:43:55.396Z,19.40
2024-02-27T06:46:22.354Z,18.07
2024-02-27T06:48:49.695Z,17.37
2024-02-27T06:51:16.417Z,17.70
2024-02-27T06:53:43.540Z,18.90
2024-02-27T06:56:10.203Z,19.27
2024-02-27T06:58:36.850Z,19.20
2024-02-27T07:01:03.991Z,17.53
2024-02-27T07:03:30.720Z,17.07
2024-02-27T07:05:58.914Z,17.30
2024-02-27T07:08:25.726Z,17.47
2024-02-27T07:10:52.449Z,17.70
2024-02-27T07:13:19.493Z,17.20
2024-02-27T07:15:47.989Z,17.03
2024-02-27T07:18:17.093Z,16.77
2024-02-27T07:20:44.343Z,16.90
2024-02-27T07:23:11.003Z,16.70
2024-02-27T07:25:37.974Z,18.13
2024-02-27T07:28:05.754Z,17.97
2024-02-27T07:30:32.532Z,16.97
2024-02-27T07:32:59.299Z,16.90
2024-02-27T07:35:26.106Z,17.10
2024-02-27T07:37:53.670Z,16.40
2024-02-27T07:40:20.360Z,17.00
2024-02-27T07:42:47.048Z,18.17
2024-02-27T07:45:13.862Z,17.80
2024-02-27T07:47:41.639Z,17.00
2024-02-27T07:50:09.156Z,18.03
2024-02-27T07:52:35.844Z,16.83
2024-02-27T07:55:02.575Z,17.37
2024-02-27T07:57:29.363Z,17.47
2024-02-27T07:59:56.099Z,17.20
2024-02-27T08:02:24.494Z,16.23
2024-02-27T08:04:51.132Z,16.10
2024-02-27T08:07:17.826Z,16.67
2024-02-27T08:09:44.526Z,16.47
2024-02-27T08:12:11.728Z,15.70
2024-02-27T08:14:38.478Z,15.83
2024-02-27T08:17:07.010Z,16.13
2024-02-27T08:19:34.324Z,14.97
2024-02-27T08:22:05.142Z,15.27
2024-02-27T08:24:33.047Z,15.33
2024-02-27T08:27:04.427Z,14.43
2024-02-27T08:29:33.381Z,14.87
2024-02-27T08:32:00.038Z,14.03
2024-02-27T08:34:26.842Z,13.67
2024-02-27T08:36:53.888Z,13.33
2024-02-27T08:39:21.094Z,13.80
2024-02-27T08:41:47.952Z,13.67
2024-02-27T08:44:14.650Z,12.93
2024-02-27T08:46:41.324Z,12.57
2024-02-27T08:49:08.350Z,13.30
2024-02-27T08:51:35.505Z,14.50
2024-02-27T08:54:02.805Z,14.93
2024-02-27T08:56:29.531Z,14.40
2024-02-27T08:58:56.186Z,14.47
2024-02-27T09:01:22.838Z,13.67
2024-02-27T09:03:50.225Z,14.07
2024-02-27T09:06:16.986Z,13.80
2024-02-27T09:08:44.011Z,13.97
2024-02-27T09:11:10.737Z,14.00
2024-02-27T09:13:37.431Z,13.93
2024-02-27T09:16:04.170Z,13.10
2024-02-27T09:18:31.011Z,13.40
2024-02-27T09:20:57.918Z,13.43
2024-02-27T09:23:25.781Z,13.93
2024-02-27T09:25:52.831Z,14.40
2024-02-27T09:28:19.487Z,14.50
2024-02-27T09:30:46.347Z,14.83
2024-02-27T09:33:13.313Z,14.43
2024-02-27T09:35:41.489Z,14.03
2024-02-27T09:38:08.165Z,15.57
2024-02-27T09:40:34.790Z,15.10
2024-02-27T09:43:02.325Z,16.30
2024-02-27T09:45:31.440Z,16.10
2024-02-27T09:47:59.058Z,15.50
2024-02-27T09:50:25.964Z,15.70
2024-02-27T09:52:53.342Z,17.00
2024-02-27T09:55:21.569Z,16.00
2024-02-27T09:57:49.297Z,18.67
2024-02-27T10:00:18.170Z,17.40
2024-02-27T10:02:46.920Z,16.00
2024-02-27T10:05:14.011Z,16.80
2024-02-27T10:07:40.772Z,16.70
2024-02-27T10:10:08.460Z,16.73
2024-02-27T10:12:35.261Z,16.80
2024-02-27T10:15:02.010Z,17.07
2024-02-27T10:17:29.058Z,16.87
2024-02-27T10:19:55.887Z,16.73
2024-02-27T10:22:22.783Z,16.13
2024-02-27T10:25:03.710Z,16.97
2024-02-27T10:27:32.474Z,16.20
2024-02-27T10:29:59.175Z,17.40
2024-02-27T10:32:26.039Z,16.40
2024-02-27T10:34:55.399Z,16.77
2024-02-27T10:37:25.281Z,17.73
2024-02-27T10:39:52.385Z,16.60
2024-02-27T10:42:19.078Z,15.97
2024-02-27T10:44:45.803Z,16.33
2024-02-27T10:47:12.446Z,16.30
2024-02-27T10:49:39.222Z,15.47
2024-02-27T10:52:06.022Z,16.27
2024-02-27T10:54:32.769Z,16.90
2024-02-27T10:56:59.455Z,17.43
2024-02-27T10:59:28.822Z,17.10
2024-02-27T11:01:56.767Z,17.03
2024-02-27T11:04:24.809Z,18.07
2024-02-27T11:06:52.240Z,17.43
2024-02-27T11:09:27.632Z,16.90
2024-02-27T11:11:57.015Z,16.97
2024-02-27T11:14:25.592Z,17.47
2024-02-27T11:16:55.732Z,17.10
2024-02-27T11:19:25.870Z,17.63
2024-02-27T11:21:53.413Z,17.83
2024-02-27T11:24:20.481Z,16.93
2024-02-27T11:26:47.212Z,18.80
2024-02-27T11:29:14.513Z,18.63
2024-02-27T11:31:41.205Z,17.37
2024-02-27T11:34:08.296Z,17.67
2024-02-27T11:36:35.217Z,17.67
2024-02-27T11:39:01.940Z,17.80
2024-02-27T11:41:28.718Z,18.27
2024-02-27T11:43:55.912Z,18.90
2024-02-27T11:46:31.436Z,19.37
2024-02-27T11:49:02.031Z,17.40
2024-02-27T11:51:31.540Z,18.20
2024-02-27T11:53:58.387Z,16.90
2024-02-27T11:56:25.067Z,16.90
2024-02-27T11:58:53.277Z,16.10
2024-02-27T12:01:20.319Z,16.50
2024-02-27T12:03:47.486Z,16.57
2024-02-27T12:06:14.324Z,16.57
2024-02-27T12:08:50.798Z,15.63
2024-02-27T12:11:18.247Z,16.37
2024-02-27T12:13:46.714Z,15.43
2024-02-27T12:16:21.578Z,15.47
2024-02-27T12:18:49.345Z,15.87
2024-02-27T12:21:28.201Z,16.43
2024-02-27T12:24:16.000Z,16.80
2024-02-27T12:26:46.246Z,15.27
2024-02-27T12:29:13.875Z,16.03
2024-02-27T12:31:40.570Z,15.47
2024-02-27T12:34:07.709Z,15.93
2024-02-27T12:36:35.185Z,17.10
2024-02-27T12:39:02.049Z,16.73
2024-02-27T12:41:28.758Z,17.07
2024-02-27T12:43:55.397Z,16.07
2024-02-27T12:46:26.149Z,17.43
2024-02-27T12:48:55.237Z,17.17
2024-02-27T12:51:22.036Z,16.83
2024-02-27T12:53:48.706Z,17.00
2024-02-27T12:56:16.200Z,17.13
2024-02-27T12:58:42.872Z,17.50
2024-02-27T13:01:09.680Z,17.50
2024-02-27T13:03:37.204Z,16.47
2024-02-27T13:06:05.954Z,16.33
2024-02-27T13:08:32.927Z,16.40
2024-02-27T13:10:59.689Z,16.93
2024-02-27T13:13:33.942Z,16.07
2024-02-27T13:16:01.092Z,19.50
2024-02-27T13:18:28.085Z,17.13
2024-02-27T13:20:54.936Z,17.23
2024-02-27T13:23:26.277Z,16.47
2024-02-27T13:26:00.494Z,18.20
2024-02-27T13:28:28.925Z,16.70
2024-02-27T13:30:56.829Z,16.40
2024-02-27T13:33:24.060Z,16.07
2024-02-27T13:35:50.839Z,16.63
2024-02-27T13:38:17.515Z,16.13
2024-02-27T13:40:46.720Z,16.77
2024-02-27T13:43:14.523Z,25.60
2024-02-27T13:45:41.305Z,17.63
2024-02-27T13:48:10.232Z,16.17
2024-02-27T13:50:37.266Z,16.70
2024-02-27T13:53:04.151Z,17.70
2024-02-27T13:55:30.804Z,16.60
2024-02-27T13:57:57.481Z,17.37
2024-02-27T14:00:24.382Z,16.77
2024-02-27T14:02:51.130Z,18.73
2024-02-27T14:05:17.899Z,17.80
2024-02-27T14:07:44.607Z,17.27
2024-02-27T14:10:11.300Z,16.23
2024-02-27T14:12:38.785Z,16.97
2024-02-27T14:15:07.079Z,16.40
2024-02-27T14:17:35.545Z,16.83
2024-02-27T14:20:02.286Z,16.27
2024-02-27T14:22:29.039Z,17.37
2024-02-27T14:24:56.482Z,16.13
2024-02-27T14:27:23.470Z,16.17
2024-02-27T14:29:50.174Z,15.87
2024-02-27T14:32:17.524Z,15.77
2024-02-27T14:34:44.314Z,15.60
2024-02-27T14:37:11.115Z,16.60
2024-02-27T14:39:37.869Z,16.50
2024-02-27T14:42:04.964Z,15.83
2024-02-27T14:44:31.701Z,16.10
2024-02-27T14:46:58.367Z,16.07
2024-02-27T14:49:25.110Z,18.47
2024-02-27T14:51:56.184Z,17.10
2024-02-27T14:54:23.355Z,17.10
2024-02-27T14:56:50.178Z,16.60
2024-02-27T14:59:17.148Z,16.47
2024-02-27T15:01:53.324Z,16.53
2024-02-27T15:04:24.168Z,17.43
2024-02-27T15:06:51.039Z,18.03
2024-02-27T15:09:18.264Z,17.43
2024-02-27T15:11:44.971Z,17.93
2024-02-27T15:14:11.687Z,17.43
2024-02-27T15:16:38.351Z,18.60
2024-02-27T15:19:05.192Z,18.93
2024-02-27T15:21:32.058Z,17.43
2024-02-27T15:23:58.982Z,18.23
2024-02-27T15:26:25.786Z,18.63
2024-02-27T15:28:52.470Z,18.20
2024-02-27T15:31:19.226Z,18.80
2024-02-27T15:33:46.180Z,18.93
2024-02-27T15:36:13.979Z,17.10
2024-02-27T15:38:40.780Z,17.33
2024-02-27T15:41:07.607Z,18.50
2024-02-27T15:43:34.622Z,18.20
2024-02-27T15:46:01.286Z,18.80
2024-02-27T15:48:28.153Z,18.50
2024-02-27T15:50:54.902Z,18.20
2024-02-27T15:53:21.564Z,19.27
2024-02-27T15:55:48.274Z,18.90
2024-02-27T15:58:14.940Z,18.47
2024-02-27T16:00:41.685Z,19.30
2024-02-27T16:03:16.871Z,18.00
2024-02-27T16:05:43.712Z,19.03
2024-02-27T16:08:10.373Z,19.00
2024-02-27T16:10:37.141Z,19.30
2024-02-27T16:13:03.878Z,19.47
2024-02-27T16:15:31.190Z,19.23
2024-02-27T16:17:59.613Z,19.87
2024-02-27T16:20:27.281Z,18.67
2024-02-27T16:22:53.947Z,17.93
2024-02-27T16:25:20.613Z,18.20
2024-02-27T16:27:47.400Z,18.50
2024-02-27T16:30:16.148Z,18.77
2024-02-27T16:32:45.332Z,18.90
2024-02-27T16:35:12.959Z,20.27
2024-02-27T16:37:42.253Z,18.70
2024-02-27T16:40:09.459Z,19.10
2024-02-27T16:42:36.154Z,18.90
2024-02-27T16:45:02.866Z,19.90
2024-02-27T16:47:30.035Z,20.17
2024-02-27T16:49:57.626Z,19.97
2024-02-27T16:52:24.344Z,20.23
2024-02-27T16:54:52.210Z,20.50
2024-02-27T16:57:22.121Z,19.40
2024-02-27T16:59:48.834Z,18.70
2024-02-27T17:02:15.468Z,17.90
2024-02-27T17:04:42.171Z,19.03
2024-02-27T17:07:09.065Z,19.50
2024-02-27T17:09:35.835Z,18.93
2024-02-27T17:12:02.890Z,19.23
2024-02-27T17:14:31.119Z,18.90
2024-02-27T17:16:57.758Z,19.30
2024-02-27T17:19:24.724Z,18.40
2024-02-27T17:21:51.533Z,19.70
2024-02-27T17:24:18.351Z,19.20
2024-02-27T17:26:45.008Z,18.90
2024-02-27T17:29:11.705Z,20.00
2024-02-27T17:31:38.357Z,19.17
2024-02-27T17:34:05.263Z,18.30
2024-02-27T17:36:37.750Z,18.07
2024-02-27T17:39:04.454Z,17.80
2024-02-27T17:41:31.089Z,16.77
2024-02-27T17:43:58.345Z,17.07
2024-02-27T17:46:25.074Z,17.80
2024-02-27T17:48:51.802Z,16.90
2024-02-27T17:51:18.569Z,16.57
2024-02-27T17:53:45.285Z,17.43
2024-02-27T17:56:15.058Z,15.77
2024-02-27T17:58:42.008Z,16.27
2024-02-27T18:03:42.908Z,16.00
2024-02-27T18:06:09.696Z,14.47
2024-02-27T18:08:36.387Z,14.93
2024-02-27T18:11:04.325Z,14.17
2024-02-27T18:13:31.003Z,15.03
2024-02-27T18:15:58.570Z,14.90
2024-02-27T18:18:25.341Z,15.10
2024-02-27T18:20:52.085Z,15.07
2024-02-27T18:23:19.608Z,16.03
2024-02-27T18:25:46.243Z,16.03
2024-02-27T18:28:12.913Z,15.33
2024-02-27T18:30:39.878Z,15.10
2024-02-27T18:33:07.586Z,15.27
2024-02-27T18:35:35.570Z,16.20
2024-02-27T18:38:03.679Z,14.33
2024-02-27T18:40:33.251Z,14.93
2024-02-27T18:43:00.647Z,14.17
2024-02-27T18:45:27.923Z,15.40
2024-02-27T18:47:54.748Z,18.43
2024-02-27T18:50:21.466Z,19.77
2024-02-27T18:52:49.665Z,17.10
2024-02-27T18:55:17.130Z,16.70
2024-02-27T18:57:44.489Z,16.97
2024-02-27T19:00:12.043Z,16.47
2024-02-27T19:02:39.157Z,14.60
2024-02-27T19:05:08.894Z,15.20
2024-02-27T19:07:35.598Z,15.90
2024-02-27T19:10:04.316Z,14.67
2024-02-27T19:12:32.185Z,15.43
2024-02-27T19:14:59.108Z,13.77
2024-02-27T19:17:25.884Z,14.00
2024-02-27T19:19:52.611Z,14.30
2024-02-27T19:22:20.133Z,13.80
2024-02-27T19:24:47.041Z,13.60
2024-02-27T19:27:13.981Z,17.80
2024-02-27T19:29:40.928Z,14.67
2024-02-27T19:32:08.374Z,13.97
2024-02-27T19:34:38.677Z,13.33
2024-02-27T19:37:05.696Z,14.60
2024-02-27T19:39:32.637Z,14.80
2024-02-27T19:41:59.640Z,15.57
2024-02-27T19:44:26.389Z,14.17
2024-02-27T19:46:53.158Z,14.40
2024-02-27T19:49:19.929Z,13.53
2024-02-27T19:51:46.820Z,14.77
2024-02-27T19:54:13.641Z,14.70
2024-02-27T19:56:42.074Z,14.77
2024-02-27T19:59:08.723Z,14.30
2024-02-27T20:01:35.458Z,14.50
2024-02-27T20:04:02.197Z,14.47
2024-02-27T20:06:28.897Z,14.33
2024-02-27T20:08:55.601Z,14.43
2024-02-27T20:11:23.185Z,14.50
2024-02-27T20:13:50.043Z,14.77
2024-02-27T20:16:17.203Z,24.87
2024-02-27T20:18:45.603Z,15.83
2024-02-27T20:21:12.794Z,16.00
2024-02-27T20:23:41.157Z,15.67
2024-02-27T20:26:07.945Z,14.30
2024-02-27T20:28:34.811Z,14.27
2024-02-27T20:31:01.526Z,14.43
2024-02-27T20:33:28.475Z,14.73
2024-02-27T20:35:55.169Z,13.63
2024-02-27T20:38:21.988Z,14.80
2024-02-27T20:40:48.715Z,14.37
2024-02-27T20:43:15.406Z,15.07
2024-02-27T20:45:42.459Z,13.75
2024-02-27T20:48:10.187Z,13.47
2024-02-27T20:50:37.451Z,14.10
2024-02-27T20:53:04.291Z,13.97
2024-02-27T20:55:30.946Z,13.77
2024-02-27T20:57:58.367Z,13.80
2024-02-27T21:00:25.285Z,14.70
2024-02-27T21:02:52.393Z,13.50
2024-02-27T21:05:19.239Z,13.93
2024-02-27T21:07:45.944Z,13.83
2024-02-27T21:10:12.704Z,14.47
2024-02-27T21:12:42.178Z,13.60
2024-02-27T21:15:09.880Z,13.70
2024-02-27T21:17:36.774Z,14.10
2024-02-27T21:20:04.554Z,17.97
2024-02-27T21:22:31.228Z,14.60
2024-02-27T21:24:57.871Z,14.67
2024-02-27T21:27:24.560Z,16.80
2024-02-27T21:29:51.243Z,15.17
2024-02-27T21:32:17.919Z,14.33
2024-02-27T21:34:44.577Z,14.63
2024-02-27T21:37:11.506Z,13.60
2024-02-27T21:39:38.309Z,13.97
2024-02-27T21:42:05.198Z,13.50
2024-02-27T21:44:32.447Z,13.57
2024-02-27T21:46:59.268Z,12.67
2024-02-27T21:49:26.057Z,13.80
2024-02-27T21:51:59.446Z,13.17
2024-02-27T21:54:30.215Z,15.27
2024-02-27T21:56:56.940Z,14.33
2024-02-27T21:59:23.610Z,13.67
2024-02-27T22:01:50.378Z,14.17
2024-02-27T22:04:17.154Z,14.97
2024-02-27T22:06:43.959Z,16.53
2024-02-27T22:09:13.724Z,14.40
2024-02-27T22:11:40.659Z,13.67
2024-02-27T22:14:07.341Z,14.00
2024-02-27T22:16:34.159Z,13.13
2024-02-27T22:19:01.369Z,12.83
2024-02-27T22:21:28.117Z,13.97
2024-02-27T22:23:54.863Z,13.17
2024-02-27T22:26:21.503Z,13.63
2024-02-27T22:28:48.216Z,13.27
2024-02-27T22:31:14.909Z,13.53
2024-02-27T22:33:41.636Z,14.23
2024-02-27T22:36:08.498Z,14.30
2024-02-27T22:38:35.253Z,13.53
2024-02-27T22:41:03.787Z,13.23
2024-02-27T22:43:30.478Z,13.70
2024-02-27T22:45:57.195Z,13.60
2024-02-27T22:48:24.163Z,13.50
2024-02-27T22:50:50.871Z,14.03
2024-02-27T22:53:17.554Z,13.07
2024-02-27T22:55:44.267Z,12.97
2024-02-27T22:58:10.909Z,13.07
2024-02-27T23:00:38.069Z,12.47
2024-02-27T23:03:04.992Z,12.77
2024-02-27T23:05:31.698Z,12.73
2024-02-27T23:07:58.344Z,12.63
2024-02-27T23:10:25.024Z,14.00
2024-02-27T23:12:51.879Z,13.43
2024-02-27T23:15:19.128Z,13.77
2024-02-27T23:17:46.464Z,14.10
2024-02-27T23:20:13.151Z,14.07
2024-02-27T23:22:43.392Z,13.63
2024-02-27T23:25:10.363Z,13.57
2024-02-27T23:27:37.115Z,13.83
2024-02-27T23:30:04.555Z,13.60
2024-02-27T23:32:31.639Z,13.57
2024-02-27T23:34:58.305Z,13.80
2024-02-27T23:37:25.029Z,13.77
2024-02-27T23:39:51.848Z,13.50
2024-02-27T23:42:18.626Z,15.23
2024-02-27T23:44:45.295Z,13.87
2024-02-27T23:47:13.367Z,15.00
2024-02-27T23:49:42.481Z,14.47
2024-02-27T23:52:09.301Z,13.83
2024-02-27T23:54:41.505Z,13.00
2024-02-27T23:57:09.009Z,12.30
2024-02-27T23:59:36.249Z,12.00
